createdAt,value
2023-03-29T00:00:40.507Z,65.99
2023-03-29T00:03:08.707Z,65.76
2023-03-29T00:05:39.188Z,65.65
2023-03-29T00:08:05.789Z,66.12
2023-03-29T00:10:33.751Z,65.64
2023-03-29T00:13:06.283Z,65.90
2023-03-29T00:15:32.934Z,65.84
2023-03-29T00:17:59.816Z,65.94
2023-03-29T00:20:28.847Z,66.21
2023-03-29T00:22:55.813Z,66.37
2023-03-29T00:25:22.770Z,66.16
2023-03-29T00:27:49.572Z,66.05
2023-03-29T00:30:16.909Z,66.23
2023-03-29T00:32:43.807Z,66.00
2023-03-29T00:35:11.153Z,65.62
2023-03-29T00:37:42.555Z,65.75
2023-03-29T00:40:11.777Z,65.97
2023-03-29T00:42:40.687Z,65.75
2023-03-29T00:45:21.343Z,65.22
2023-03-29T00:48:07.156Z,65.00
2023-03-29T00:50:43.622Z,64.85
2023-03-29T00:53:29.891Z,65.02
2023-03-29T00:56:21.699Z,64.97
2023-03-29T00:58:55.433Z,64.80
2023-03-29T01:01:34.213Z,64.78
2023-03-29T01:04:18.697Z,64.57
2023-03-29T01:06:58.220Z,64.40
2023-03-29T01:09:29.895Z,65.31
2023-03-29T01:11:59.544Z,65.65
2023-03-29T01:14:41.870Z,66.33
2023-03-29T01:17:10.502Z,65.83
2023-03-29T01:19:59.259Z,65.31
2023-03-29T01:22:58.290Z,65.32
2023-03-29T01:25:31.439Z,65.29
2023-03-29T01:28:03.493Z,65.37
2023-03-29T01:30:49.903Z,65.47
2023-03-29T01:33:24.014Z,64.94
2023-03-29T01:36:05.132Z,65.18
2023-03-29T01:38:51.737Z,65.38
2023-03-29T01:41:18.372Z,65.09
2023-03-29T01:43:56.380Z,65.06
2023-03-29T01:46:45.678Z,65.17
2023-03-29T01:49:36.567Z,65.34
2023-03-29T01:52:22.882Z,65.25
2023-03-29T01:55:04.224Z,64.63
2023-03-29T01:57:33.019Z,64.32
2023-03-29T02:00:09.887Z,64.36
2023-03-29T02:02:47.565Z,64.79
2023-03-29T02:05:17.603Z,64.63
2023-03-29T02:07:47.652Z,64.31
2023-03-29T02:10:18.842Z,63.93
2023-03-29T02:12:47.216Z,63.96
2023-03-29T02:15:19.524Z,63.88
2023-03-29T02:17:52.878Z,63.99
2023-03-29T02:20:33.758Z,63.85
2023-03-29T02:23:15.010Z,64.48
2023-03-29T02:25:46.668Z,64.93
2023-03-29T02:28:17.315Z,64.50
2023-03-29T02:30:55.511Z,64.93
2023-03-29T02:33:31.453Z,64.46
2023-03-29T02:36:08.139Z,64.38
2023-03-29T02:38:35.922Z,63.99
2023-03-29T02:41:07.612Z,64.31
2023-03-29T02:43:36.018Z,64.08
2023-03-29T02:46:07.969Z,64.07
2023-03-29T02:48:38.461Z,64.21
2023-03-29T02:51:20.220Z,63.78
2023-03-29T02:54:18.619Z,63.94
2023-03-29T02:57:04.919Z,63.69
2023-03-29T02:59:33.474Z,64.32
2023-03-29T03:02:01.037Z,63.52
2023-03-29T03:04:29.337Z,64.15
2023-03-29T03:07:01.280Z,64.29
2023-03-29T03:09:28.372Z,64.66
2023-03-29T03:11:55.006Z,64.37
2023-03-29T03:14:22.953Z,64.03
2023-03-29T03:16:52.979Z,63.46
2023-03-29T03:19:22.993Z,63.51
2023-03-29T03:21:56.005Z,63.44
2023-03-29T03:24:32.671Z,63.54
2023-03-29T03:27:02.071Z,63.08
2023-03-29T03:29:32.019Z,63.48
2023-03-29T03:31:59.154Z,63.76
2023-03-29T03:34:29.465Z,63.84
2023-03-29T03:36:58.529Z,64.20
2023-03-29T03:39:25.231Z,64.57
2023-03-29T03:41:53.929Z,65.01
2023-03-29T03:44:55.020Z,65.47
2023-03-29T03:47:24.818Z,65.58
2023-03-29T03:49:51.674Z,66.32
2023-03-29T03:52:19.117Z,65.99
2023-03-29T03:54:46.710Z,66.11
2023-03-29T03:57:13.559Z,66.24
2023-03-29T03:59:42.870Z,66.20
2023-03-29T04:02:12.937Z,66.27
2023-03-29T04:04:43.016Z,66.33
2023-03-29T04:07:14.463Z,66.52
2023-03-29T04:09:48.724Z,66.24
2023-03-29T04:12:22.348Z,66.33
2023-03-29T04:14:49.084Z,66.38
2023-03-29T04:17:15.726Z,66.61
2023-03-29T04:19:45.443Z,66.65
2023-03-29T04:22:12.062Z,66.97
2023-03-29T04:24:38.673Z,66.91
2023-03-29T04:27:06.489Z,67.13
2023-03-29T04:29:35.418Z,66.84
2023-03-29T04:32:06.732Z,67.34
2023-03-29T04:34:33.386Z,67.26
2023-03-29T04:37:00.046Z,67.32
2023-03-29T04:39:36.390Z,66.68
2023-03-29T04:42:05.603Z,66.68
2023-03-29T04:44:35.149Z,67.40
2023-03-29T04:47:01.988Z,67.30
2023-03-29T04:49:31.738Z,67.65
2023-03-29T04:51:58.316Z,67.06
2023-03-29T04:54:24.905Z,66.42
2023-03-29T04:56:53.938Z,66.19
2023-03-29T04:59:22.527Z,65.93
2023-03-29T05:01:55.277Z,65.32
2023-03-29T05:04:22.020Z,65.55
2023-03-29T05:06:54.099Z,65.28
2023-03-29T05:09:23.347Z,64.70
2023-03-29T05:11:52.632Z,64.32
2023-03-29T05:14:19.261Z,64.28
2023-03-29T05:16:49.069Z,64.15
2023-03-29T05:19:19.118Z,64.51
2023-03-29T05:21:57.384Z,63.98
2023-03-29T05:24:24.018Z,63.88
2023-03-29T05:26:53.421Z,63.72
2023-03-29T05:29:24.977Z,62.37
2023-03-29T05:31:54.793Z,62.48
2023-03-29T05:34:25.118Z,62.65
2023-03-29T05:36:54.260Z,62.95
2023-03-29T05:39:21.207Z,61.83
2023-03-29T05:41:52.692Z,62.08
2023-03-29T05:44:19.467Z,62.10
2023-03-29T05:46:52.419Z,62.36
2023-03-29T05:49:19.164Z,60.93
2023-03-29T05:51:48.917Z,61.30
2023-03-29T05:54:17.791Z,62.28
2023-03-29T05:56:46.244Z,61.97
2023-03-29T05:59:16.597Z,61.70
2023-03-29T06:01:45.478Z,62.53
2023-03-29T06:04:15.863Z,62.09
2023-03-29T06:06:42.632Z,61.85
2023-03-29T06:09:09.876Z,61.52
2023-03-29T06:11:36.591Z,61.19
2023-03-29T06:14:03.515Z,61.59
2023-03-29T06:16:33.894Z,60.71
2023-03-29T06:19:04.699Z,61.89
2023-03-29T06:21:36.576Z,61.99
2023-03-29T06:24:06.939Z,62.13
2023-03-29T06:26:33.727Z,62.48
2023-03-29T06:29:00.328Z,62.16
2023-03-29T06:31:27.167Z,62.64
2023-03-29T06:33:53.791Z,61.21
2023-03-29T06:36:23.352Z,61.27
2023-03-29T06:38:56.951Z,60.85
2023-03-29T06:41:25.133Z,60.78
2023-03-29T06:43:51.870Z,60.19
2023-03-29T06:46:26.420Z,59.95
2023-03-29T06:48:53.462Z,60.70
2023-03-29T06:51:23.373Z,60.51
2023-03-29T06:53:56.249Z,60.06
2023-03-29T06:56:26.539Z,59.65
2023-03-29T06:58:58.491Z,58.81
2023-03-29T07:01:25.143Z,58.50
2023-03-29T07:03:53.730Z,58.34
2023-03-29T07:06:24.328Z,57.53
2023-03-29T07:08:52.479Z,57.80
2023-03-29T07:11:20.478Z,57.91
2023-03-29T07:13:49.286Z,58.85
2023-03-29T07:16:19.442Z,57.49
2023-03-29T07:18:48.553Z,56.57
2023-03-29T07:21:17.533Z,56.35
2023-03-29T07:23:46.263Z,56.76
2023-03-29T07:26:28.828Z,55.19
2023-03-29T07:28:58.467Z,53.99
2023-03-29T07:31:30.531Z,52.84
2023-03-29T07:36:43.841Z,53.01
2023-03-29T07:39:12.972Z,52.43
2023-03-29T07:41:39.568Z,53.35
2023-03-29T07:44:11.356Z,53.68
2023-03-29T07:46:41.119Z,52.20
2023-03-29T07:49:08.233Z,51.19
2023-03-29T07:51:39.318Z,50.62
2023-03-29T07:54:09.311Z,50.39
2023-03-29T07:56:39.024Z,51.51
2023-03-29T07:59:10.224Z,51.33
2023-03-29T08:01:41.140Z,50.52
2023-03-29T08:04:08.114Z,49.63
2023-03-29T08:06:38.779Z,49.95
2023-03-29T08:09:07.021Z,48.24
2023-03-29T08:11:40.758Z,48.67
2023-03-29T08:14:09.492Z,47.00
2023-03-29T08:16:49.311Z,47.43
2023-03-29T08:19:26.723Z,46.39
2023-03-29T08:21:56.661Z,45.92
2023-03-29T08:24:33.883Z,46.45
2023-03-29T08:27:00.815Z,46.37
2023-03-29T08:29:30.473Z,44.94
2023-03-29T08:31:58.413Z,44.43
2023-03-29T08:34:25.106Z,46.11
2023-03-29T08:36:53.125Z,48.66
2023-03-29T08:39:19.986Z,53.22
2023-03-29T08:41:46.713Z,55.99
2023-03-29T08:44:20.500Z,55.05
2023-03-29T08:47:03.165Z,54.10
2023-03-29T08:49:30.955Z,53.34
2023-03-29T08:52:07.967Z,52.11
2023-03-29T08:54:43.701Z,53.19
2023-03-29T08:57:22.835Z,55.42
2023-03-29T08:59:58.025Z,55.01
2023-03-29T09:02:29.799Z,54.70
2023-03-29T09:05:08.002Z,54.92
2023-03-29T09:07:37.557Z,56.05
2023-03-29T09:10:04.507Z,54.47
2023-03-29T09:12:57.308Z,52.91
2023-03-29T09:16:20.851Z,53.32
2023-03-29T09:19:29.036Z,54.83
2023-03-29T09:22:17.953Z,54.96
2023-03-29T09:24:56.516Z,54.21
2023-03-29T09:27:39.399Z,54.44
2023-03-29T09:30:12.173Z,53.94
2023-03-29T09:33:07.921Z,53.43
2023-03-29T09:35:43.550Z,51.34
2023-03-29T09:38:16.370Z,52.47
2023-03-29T09:40:59.467Z,53.15
2023-03-29T09:43:36.203Z,51.65
2023-03-29T09:46:06.804Z,51.27
2023-03-29T09:48:41.029Z,49.08
2023-03-29T09:51:14.704Z,49.66
2023-03-29T09:53:41.319Z,50.37
2023-03-29T09:56:08.740Z,50.11
2023-03-29T09:58:40.640Z,50.17
2023-03-29T10:01:12.344Z,51.28
2023-03-29T10:03:49.227Z,50.03
2023-03-29T10:06:17.781Z,49.72
2023-03-29T10:09:03.692Z,50.01
2023-03-29T10:11:34.417Z,50.95
2023-03-29T10:14:26.230Z,52.22
2023-03-29T10:16:59.230Z,53.20
2023-03-29T10:19:35.258Z,52.95
2023-03-29T10:22:18.127Z,52.97
2023-03-29T10:24:55.309Z,52.83
2023-03-29T10:27:25.154Z,52.50
2023-03-29T10:29:54.731Z,51.45
2023-03-29T10:32:37.727Z,50.24
2023-03-29T10:35:13.415Z,50.10
2023-03-29T10:37:43.267Z,49.19
2023-03-29T10:40:25.497Z,48.59
2023-03-29T10:42:54.111Z,48.07
2023-03-29T10:45:27.172Z,47.82
2023-03-29T10:47:56.687Z,47.12
2023-03-29T10:50:23.959Z,47.62
2023-03-29T10:52:51.196Z,47.29
2023-03-29T10:55:20.965Z,46.95
2023-03-29T10:58:09.419Z,44.92
2023-03-29T11:00:57.144Z,44.93
2023-03-29T11:04:04.204Z,45.65
2023-03-29T11:06:59.818Z,44.40
2023-03-29T11:09:38.582Z,44.77
2023-03-29T11:12:45.568Z,44.43
2023-03-29T11:18:42.877Z,43.53
2023-03-29T11:21:34.090Z,43.39
2023-03-29T11:24:18.911Z,43.91
2023-03-29T11:26:53.751Z,43.11
2023-03-29T11:29:28.184Z,42.90
2023-03-29T11:32:00.507Z,42.60
2023-03-29T11:35:03.279Z,43.29
2023-03-29T11:37:42.126Z,42.87
2023-03-29T11:40:36.265Z,42.62
2023-03-29T11:43:13.448Z,41.49
2023-03-29T11:45:46.274Z,41.52
2023-03-29T11:48:23.597Z,40.04
2023-03-29T11:51:27.512Z,40.57
2023-03-29T11:54:04.189Z,40.44
2023-03-29T11:56:44.274Z,40.28
2023-03-29T11:59:42.816Z,41.18
2023-03-29T12:02:42.555Z,40.98
2023-03-29T12:05:21.098Z,40.73
2023-03-29T12:07:58.346Z,40.44
2023-03-29T12:10:36.513Z,41.41
2023-03-29T12:13:26.229Z,42.49
2023-03-29T12:16:07.279Z,41.42
2023-03-29T12:18:45.480Z,40.53
2023-03-29T12:21:27.901Z,41.09
2023-03-29T12:23:54.686Z,41.07
2023-03-29T12:26:40.502Z,41.64
2023-03-29T12:29:37.536Z,40.58
2023-03-29T12:32:26.908Z,39.94
2023-03-29T12:34:53.510Z,39.56
2023-03-29T12:37:23.446Z,39.49
2023-03-29T12:39:55.452Z,40.16
2023-03-29T12:42:26.735Z,41.31
2023-03-29T12:45:00.743Z,41.10
2023-03-29T12:47:34.088Z,39.89
2023-03-29T12:50:02.047Z,40.04
2023-03-29T12:52:33.781Z,38.97
2023-03-29T12:55:12.014Z,39.93
2023-03-29T12:57:43.206Z,38.46
2023-03-29T13:00:28.084Z,39.27
2023-03-29T13:03:05.126Z,38.73
2023-03-29T13:05:39.333Z,38.26
2023-03-29T13:08:36.815Z,38.41
2023-03-29T13:11:06.866Z,39.11
2023-03-29T13:13:39.740Z,38.23
2023-03-29T13:16:34.929Z,37.32
2023-03-29T13:19:34.282Z,38.82
2023-03-29T13:22:42.493Z,37.17
2023-03-29T13:26:18.410Z,36.11
2023-03-29T13:29:00.723Z,37.00
2023-03-29T13:31:52.046Z,36.20
2023-03-29T13:34:34.957Z,36.77
2023-03-29T13:37:42.311Z,35.90
2023-03-29T13:40:31.469Z,35.74
2023-03-29T13:43:40.586Z,34.37
2023-03-29T13:46:43.519Z,34.64
2023-03-29T13:52:29.343Z,33.42
2023-03-29T13:55:46.726Z,32.48
2023-03-29T14:04:52.225Z,34.40
2023-03-29T14:07:26.326Z,34.57
2023-03-29T14:09:55.612Z,33.12
2023-03-29T14:12:41.138Z,32.94
2023-03-29T14:15:24.863Z,32.48
2023-03-29T14:18:01.980Z,32.31
2023-03-29T14:20:32.981Z,32.06
2023-03-29T14:23:10.030Z,32.76
2023-03-29T14:25:42.555Z,34.24
2023-03-29T14:31:36.119Z,34.78
2023-03-29T14:34:28.033Z,33.93
2023-03-29T14:36:54.818Z,33.99
2023-03-29T14:39:28.403Z,34.64
2023-03-29T14:41:59.406Z,35.02
2023-03-29T14:44:30.137Z,34.50
2023-03-29T14:49:50.040Z,35.92
2023-03-29T14:52:19.006Z,36.14
2023-03-29T14:54:50.179Z,34.55
2023-03-29T14:57:22.515Z,31.98
2023-03-29T14:59:58.188Z,31.94
2023-03-29T15:02:32.039Z,33.44
2023-03-29T15:05:04.865Z,31.54
2023-03-29T15:07:39.363Z,28.95
2023-03-29T15:10:12.986Z,29.43
2023-03-29T15:12:45.328Z,30.43
2023-03-29T15:15:16.899Z,28.48
2023-03-29T15:17:50.968Z,27.63
2023-03-29T15:20:33.820Z,26.77
2023-03-29T15:23:10.043Z,27.18
2023-03-29T15:25:45.994Z,29.14
2023-03-29T15:28:30.147Z,29.84
2023-03-29T15:31:16.186Z,26.93
2023-03-29T15:33:50.192Z,26.87
2023-03-29T15:36:22.254Z,27.40
2023-03-29T15:38:53.485Z,31.04
2023-03-29T15:41:20.437Z,27.82
2023-03-29T15:43:50.985Z,26.39
2023-03-29T15:46:18.904Z,26.19
2023-03-29T15:48:45.948Z,25.89
2023-03-29T15:51:16.184Z,25.30
2023-03-29T15:53:43.114Z,26.51
2023-03-29T15:56:17.891Z,25.60
2023-03-29T15:58:44.904Z,26.19
2023-03-29T16:01:23.799Z,26.59
2023-03-29T16:03:51.139Z,25.59
2023-03-29T16:06:19.170Z,25.98
2023-03-29T16:08:46.176Z,28.17
2023-03-29T16:11:12.737Z,27.29
2023-03-29T16:13:39.506Z,27.06
2023-03-29T16:16:07.016Z,28.24
2023-03-29T16:18:33.987Z,28.22
2023-03-29T16:21:03.447Z,29.91
2023-03-29T16:23:30.217Z,31.96
2023-03-29T16:26:02.811Z,34.64
2023-03-29T16:28:29.640Z,35.81
2023-03-29T16:30:56.286Z,36.11
2023-03-29T16:33:28.569Z,36.39
2023-03-29T16:35:58.034Z,36.85
2023-03-29T16:38:42.245Z,36.71
2023-03-29T16:41:14.996Z,36.62
2023-03-29T16:43:42.140Z,36.99
2023-03-29T16:46:17.286Z,36.50
2023-03-29T16:48:51.433Z,36.96
2023-03-29T16:51:18.693Z,37.09
2023-03-29T16:53:48.838Z,37.48
2023-03-29T16:56:15.926Z,37.54
2023-03-29T16:58:42.673Z,37.05
2023-03-29T17:01:21.343Z,37.25
2023-03-29T17:03:48.097Z,37.57
2023-03-29T17:06:21.190Z,37.37
2023-03-29T17:08:51.897Z,37.66
2023-03-29T17:11:24.065Z,38.19
2023-03-29T17:13:50.729Z,38.43
2023-03-29T17:16:20.785Z,38.88
2023-03-29T17:18:51.174Z,38.91
2023-03-29T17:21:19.685Z,38.94
2023-03-29T17:23:46.705Z,39.88
2023-03-29T17:26:15.719Z,39.80
2023-03-29T17:28:47.965Z,42.03
2023-03-29T17:31:15.976Z,42.95
2023-03-29T17:33:42.762Z,43.69
2023-03-29T17:36:09.890Z,43.56
2023-03-29T17:38:41.268Z,43.61
2023-03-29T17:41:08.315Z,43.73
2023-03-29T17:43:40.372Z,43.98
2023-03-29T17:46:11.902Z,43.59
2023-03-29T17:48:39.460Z,43.49
2023-03-29T17:51:10.717Z,43.47
2023-03-29T17:53:37.611Z,44.04
2023-03-29T17:56:04.641Z,44.09
2023-03-29T17:58:33.896Z,44.49
2023-03-29T18:01:16.874Z,44.92
2023-03-29T18:03:43.589Z,44.24
2023-03-29T18:06:10.197Z,44.67
2023-03-29T18:08:43.248Z,45.40
2023-03-29T18:11:14.271Z,46.85
2023-03-29T18:13:43.440Z,46.30
2023-03-29T18:16:10.562Z,45.97
2023-03-29T18:18:41.694Z,45.56
2023-03-29T18:21:10.366Z,45.88
2023-03-29T18:23:43.331Z,46.19
2023-03-29T18:26:10.219Z,46.05
2023-03-29T18:28:40.126Z,45.59
2023-03-29T18:31:09.713Z,45.30
2023-03-29T18:33:39.739Z,45.08
2023-03-29T18:36:13.226Z,45.18
2023-03-29T18:38:44.886Z,45.23
2023-03-29T18:41:13.170Z,45.15
2023-03-29T18:43:48.056Z,45.42
2023-03-29T18:46:20.786Z,45.16
2023-03-29T18:48:47.689Z,45.46
2023-03-29T18:51:18.112Z,45.53
2023-03-29T18:53:44.774Z,45.41
2023-03-29T18:56:14.259Z,45.76
2023-03-29T18:58:41.097Z,45.86
2023-03-29T19:01:14.312Z,45.83
2023-03-29T19:03:41.366Z,45.92
2023-03-29T19:06:08.469Z,46.07
2023-03-29T19:08:41.563Z,46.31
2023-03-29T19:11:11.376Z,46.60
2023-03-29T19:13:40.958Z,47.19
2023-03-29T19:16:10.472Z,47.00
2023-03-29T19:18:39.156Z,46.82
2023-03-29T19:21:05.898Z,47.08
2023-03-29T19:23:32.757Z,47.14
2023-03-29T19:26:06.569Z,47.01
2023-03-29T19:28:38.966Z,46.90
2023-03-29T19:31:09.780Z,46.82
2023-03-29T19:33:40.847Z,47.10
2023-03-29T19:36:13.187Z,46.97
2023-03-29T19:38:47.501Z,47.00
2023-03-29T19:41:21.510Z,47.00
2023-03-29T19:43:48.246Z,47.25
2023-03-29T19:46:19.997Z,47.37
2023-03-29T19:49:04.341Z,47.36
2023-03-29T19:51:48.037Z,48.16
2023-03-29T19:54:17.128Z,48.23
2023-03-29T19:56:46.463Z,48.30
2023-03-29T19:59:17.771Z,49.74
2023-03-29T20:01:51.135Z,49.01
2023-03-29T20:04:20.039Z,49.04
2023-03-29T20:06:46.817Z,48.98
2023-03-29T20:09:16.087Z,49.19
2023-03-29T20:11:46.908Z,48.88
2023-03-29T20:14:14.116Z,49.35
2023-03-29T20:16:41.844Z,48.83
2023-03-29T20:19:14.255Z,47.82
2023-03-29T20:21:42.188Z,47.64
2023-03-29T20:24:09.472Z,47.99
2023-03-29T20:26:39.121Z,48.24
2023-03-29T20:29:06.336Z,48.29
2023-03-29T20:31:34.940Z,48.14
2023-03-29T20:34:06.320Z,49.17
2023-03-29T20:36:33.784Z,50.21
2023-03-29T20:39:01.292Z,51.56
2023-03-29T20:41:31.689Z,52.27
2023-03-29T20:44:02.979Z,51.45
2023-03-29T20:46:38.808Z,51.74
2023-03-29T20:49:08.943Z,51.22
2023-03-29T20:51:42.515Z,50.79
2023-03-29T20:54:11.632Z,52.64
2023-03-29T20:56:42.365Z,54.06
2023-03-29T20:59:14.164Z,54.95
2023-03-29T21:01:43.207Z,55.95
2023-03-29T21:04:14.585Z,56.41
2023-03-29T21:06:41.167Z,57.64
2023-03-29T21:09:10.888Z,58.06
2023-03-29T21:11:42.811Z,57.92
2023-03-29T21:14:09.543Z,58.79
2023-03-29T21:16:36.632Z,59.83
2023-03-29T21:19:05.339Z,59.93
2023-03-29T21:21:33.725Z,60.81
2023-03-29T21:24:00.688Z,61.51
2023-03-29T21:26:28.166Z,61.44
2023-03-29T21:28:54.838Z,61.44
2023-03-29T21:31:21.521Z,61.56
2023-03-29T21:33:48.192Z,61.12
2023-03-29T21:36:14.839Z,61.15
2023-03-29T21:38:43.328Z,61.37
2023-03-29T21:41:12.832Z,61.59
2023-03-29T21:43:42.604Z,61.69
2023-03-29T21:46:12.275Z,61.27
2023-03-29T21:48:39.077Z,61.54
2023-03-29T21:51:09.349Z,61.67
2023-03-29T21:53:39.092Z,61.59
2023-03-29T21:56:06.650Z,61.05
2023-03-29T21:58:35.628Z,61.07
2023-03-29T22:01:07.331Z,61.03
2023-03-29T22:03:34.221Z,61.12
2023-03-29T22:06:09.624Z,61.34
2023-03-29T22:08:44.613Z,61.01
2023-03-29T22:11:14.405Z,61.19
2023-03-29T22:13:45.510Z,61.04
2023-03-29T22:16:19.611Z,60.72
2023-03-29T22:18:50.506Z,60.78
2023-03-29T22:21:24.915Z,60.99
2023-03-29T22:23:55.494Z,61.07
2023-03-29T22:26:25.135Z,61.52
2023-03-29T22:28:51.728Z,61.70
2023-03-29T22:31:21.171Z,62.18
2023-03-29T22:33:48.048Z,62.06
2023-03-29T22:36:24.363Z,62.22
2023-03-29T22:38:56.315Z,62.34
2023-03-29T22:41:26.144Z,62.74
2023-03-29T22:43:54.294Z,63.42
2023-03-29T22:46:21.397Z,63.43
2023-03-29T22:48:48.216Z,63.50
2023-03-29T22:51:15.304Z,63.70
2023-03-29T22:53:42.046Z,64.64
2023-03-29T22:56:10.975Z,64.02
2023-03-29T22:58:46.009Z,63.96
2023-03-29T23:01:13.214Z,64.15
2023-03-29T23:03:39.942Z,63.99
2023-03-29T23:06:06.961Z,63.92
2023-03-29T23:08:35.076Z,63.83
2023-03-29T23:11:07.782Z,63.86
2023-03-29T23:13:35.348Z,63.68
2023-03-29T23:16:03.870Z,63.89
2023-03-29T23:18:33.761Z,64.18
2023-03-29T23:21:01.768Z,64.54
2023-03-29T23:23:31.824Z,64.72
2023-03-29T23:26:00.853Z,65.03
2023-03-29T23:28:30.749Z,65.04
2023-03-29T23:31:18.493Z,64.63
2023-03-29T23:33:45.544Z,65.00
2023-03-29T23:36:21.381Z,65.06
2023-03-29T23:38:54.175Z,65.26
2023-03-29T23:41:28.380Z,65.21
2023-03-29T23:43:57.669Z,64.88
2023-03-29T23:46:28.723Z,64.48
2023-03-29T23:49:01.775Z,64.21
2023-03-29T23:51:30.598Z,63.86
2023-03-29T23:53:57.497Z,64.34
2023-03-29T23:56:26.953Z,64.53
2023-03-29T23:58:59.035Z,64.21
